Time;durP1;ratioP1;P1;durP2;ratioP2;P2;SDS_P1;SDS_P2;PMS_P1;PMS_P2;Temp;Humidity;BMP_temperature;BMP_pressure;BME280_temperature;BME280_humidity;BME280_pressure;Samples;Min_cycle;Max_cycle;Signal;HPM_P1;HPM_P2
2022/04/26 03:36:54;;;;;;;;;37.20;34.40;;;;;11.78;58.58;100954.16;5015819;28;45587;-53
2022/04/26 03:39:19;;;;;;;;;45.25;34.75;;;;;11.61;58.43;100920.78;5015707;28;45438;-58
2022/04/26 03:41:45;;;;;;;;;37.00;32.50;;;;;11.75;58.71;100951.88;5015777;28;46577;-55
2022/04/26 03:44:10;;;;;;;;;36.00;31.25;;;;;11.72;58.48;100942.13;5015902;28;45223;-55
2022/04/26 03:46:36;;;;;;;;;41.25;35.75;;;;;11.74;58.04;100948.25;5015583;28;45298;-57
2022/04/26 03:49:02;;;;;;;;;40.75;31.75;;;;;11.74;58.50;100953.75;5016173;28;45736;-57
2022/04/26 03:51:27;;;;;;;;;44.00;34.50;;;;;11.70;58.82;100951.66;5015441;28;46119;-54
2022/04/26 03:53:53;;;;;;;;;38.00;35.00;;;;;11.72;58.42;100944.88;5015487;28;45318;-55
2022/04/26 03:56:18;;;;;;;;;40.00;34.50;;;;;11.70;58.83;100949.75;5015352;28;45450;-54
2022/04/26 03:58:43;;;;;;;;;49.00;40.25;;;;;11.54;58.02;100918.06;5015570;28;45308;-57
2022/04/26 04:01:09;;;;;;;;;39.50;35.50;;;;;11.49;57.99;100907.69;5015348;28;46088;-54
2022/04/26 04:03:38;;;;;;;;;45.75;37.00;;;;;11.70;58.79;100957.16;5013964;28;45384;-54
2022/04/26 04:06:04;;;;;;;;;40.80;35.80;;;;;11.71;58.42;100951.44;5014054;28;45454;-54
2022/04/26 04:08:29;;;;;;;;;40.25;34.50;;;;;11.56;58.34;100924.19;5015556;28;45440;-52
2022/04/26 04:10:55;;;;;;;;;45.25;36.25;;;;;11.69;58.21;100941.72;5015217;28;46187;-57
2022/04/26 04:13:20;;;;;;;;;50.75;37.75;;;;;11.65;58.90;100963.31;4997336;28;45332;-55
2022/04/26 04:15:46;;;;;;;;;42.00;35.50;;;;;11.64;58.32;100954.19;5013801;28;45406;-56
2022/04/26 04:20:57;;;;;;;;;42.80;37.40;;;;;11.50;59.48;100958.88;5013930;28;46026;-57
2022/04/26 04:23:22;;;;;;;;;45.00;39.75;;;;;11.42;59.50;100980.25;5015163;28;45336;-54
2022/04/26 04:25:48;;;;;;;;;44.00;36.25;;;;;11.25;59.76;100964.16;5014972;28;45432;-55
2022/04/26 04:28:15;;;;;;;;;50.75;38.25;;;;;11.41;59.86;100987.63;5015337;28;45641;-58
2022/04/26 04:30:41;;;;;;;;;47.00;37.80;;;;;11.30;59.48;100953.38;5013553;28;48631;-56
2022/04/26 04:33:07;;;;;;;;;41.60;36.80;;;;;11.46;59.52;100976.84;5013566;28;45424;-56
2022/04/26 04:35:32;;;;;;;;;48.50;38.00;;;;;11.45;59.04;100988.03;5014925;28;45294;-57
2022/04/26 04:37:57;;;;;;;;;49.50;39.25;;;;;11.43;59.13;100988.28;5013942;28;45493;-54
2022/04/26 04:40:23;;;;;;;;;50.00;38.50;;;;;11.45;59.96;100997.16;5013632;28;45651;-56
2022/04/26 04:42:48;;;;;;;;;43.50;38.50;;;;;11.47;59.85;100996.94;5014565;28;45365;-55
2022/04/26 04:45:14;;;;;;;;;45.75;35.25;;;;;11.43;59.71;101001.16;5013663;28;45420;-55
2022/04/26 04:47:39;;;;;;;;;46.50;35.75;;;;;11.49;60.00;101001.16;5014665;28;45388;-54
2022/04/26 04:50:06;;;;;;;;;44.75;37.50;;;;;11.49;59.57;100990.16;5014601;28;46716;-56
2022/04/26 04:52:31;;;;;;;;;45.40;38.60;;;;;11.41;59.68;100973.88;4984733;28;45881;-56
2022/04/26 04:54:57;;;;;;;;;45.00;37.50;;;;;11.42;59.59;100972.81;5015572;28;45339;-56
2022/04/26 04:57:22;;;;;;;;;52.50;40.25;;;;;11.71;58.72;101011.09;5018079;28;45330;-56
2022/04/26 04:59:48;;;;;;;;;44.75;38.50;;;;;11.58;59.12;100987.22;5017132;28;45942;-55
2022/04/26 05:02:13;;;;;;;;;49.25;41.00;;;;;11.70;58.82;101018.50;5018281;28;45418;-51
2022/04/26 05:04:42;;;;;;;;;52.50;42.00;;;;;11.74;59.22;101025.25;5018524;28;45299;-55
2022/04/26 05:07:08;;;;;;;;;49.75;40.25;;;;;11.77;59.42;101022.09;5018187;28;45533;-55
2022/04/26 05:09:34;;;;;;;;;52.00;40.20;;;;;11.77;59.30;101029.47;5018162;28;45466;-55
2022/04/26 05:11:59;;;;;;;;;51.75;43.25;;;;;11.76;58.72;101030.53;5018095;28;45368;-54
2022/04/26 05:14:25;;;;;;;;;56.25;46.00;;;;;11.63;58.92;101006.66;5018176;28;46039;-56
2022/04/26 05:16:53;;;;;;;;;45.25;38.00;;;;;11.82;59.12;101026.94;5016693;28;45353;-55
2022/04/26 05:19:19;;;;;;;;;51.40;43.20;;;;;11.83;58.86;101028.63;5017941;28;45399;-56
2022/04/26 05:21:44;;;;;;;;;50.25;40.25;;;;;11.43;59.02;100987.41;5016812;28;45451;-53
2022/04/26 05:26:53;;;;;;;;;52.60;41.40;;;;;11.73;59.39;101040.06;5017980;28;45369;-56
2022/04/26 05:29:19;;;;;;;;;54.25;42.75;;;;;11.74;58.98;101047.25;5018126;28;45980;-56
2022/04/26 05:31:44;;;;;;;;;54.25;44.00;;;;;11.79;58.96;101046.59;5017994;28;45314;-56
2022/04/26 05:34:10;;;;;;;;;56.75;44.25;;;;;11.77;59.15;101057.84;5017729;28;45382;-56
2022/04/26 05:36:35;;;;;;;;;55.75;44.00;;;;;11.74;59.15;101047.25;5018249;28;45567;-51
2022/04/26 05:39:01;;;;;;;;;56.75;43.50;;;;;11.83;58.84;101063.53;5016272;28;46561;-56
2022/04/26 05:41:27;;;;;;;;;54.00;43.50;;;;;11.51;59.21;101026.53;5017883;28;45469;-54
2022/04/26 05:43:52;;;;;;;;;53.75;43.00;;;;;11.47;59.58;101025.25;5017704;28;45383;-56
2022/04/26 05:46:18;;;;;;;;;60.25;46.25;;;;;11.47;59.17;101018.94;5018021;28;45394;-53
2022/04/26 05:48:43;;;;;;;;;54.75;43.25;;;;;11.65;59.45;101067.78;5016131;28;46724;-56
2022/04/26 05:51:09;;;;;;;;;56.50;45.00;;;;;11.64;59.68;101075.16;5017222;28;45261;-55
2022/04/26 05:53:35;;;;;;;;;62.00;45.75;;;;;11.63;59.55;101062.47;5017715;28;45385;-55
2022/04/26 05:56:01;;;;;;;;;60.50;46.25;;;;;11.53;59.63;101051.91;5016439;28;45369;-56
2022/04/26 05:58:26;;;;;;;;;57.75;46.00;;;;;11.75;59.62;101081.94;5016974;28;45472;-57
2022/04/26 06:00:52;;;;;;;;;55.00;46.50;;;;;11.75;60.05;101084.69;5017255;28;45395;-56
2022/04/26 06:03:17;;;;;;;;;62.75;45.00;;;;;11.63;60.40;101078.16;5016087;28;45333;-57
2022/04/26 06:05:43;;;;;;;;;62.75;47.50;;;;;11.62;60.31;101077.28;5017265;28;45585;-51
2022/04/26 06:08:09;;;;;;;;;64.75;49.50;;;;;11.71;59.93;101083.44;5015394;28;45618;-54
2022/04/26 06:10:37;;;;;;;;;63.80;48.60;;;;;11.74;59.27;101072.00;5017250;28;45303;-54
2022/04/26 06:13:02;;;;;;;;;59.20;46.20;;;;;11.70;59.15;101073.50;5016847;28;45346;-52
2022/04/26 06:15:28;;;;;;;;;64.75;49.75;;;;;11.65;59.51;101070.53;5015999;28;45645;-56
2022/04/26 06:17:53;;;;;;;;;64.75;51.75;;;;;11.60;59.65;101064.81;4998853;28;47343;-56
2022/04/26 06:20:22;;;;;;;;;65.00;49.00;;;;;11.69;59.52;101066.28;5016767;28;45406;-57
2022/04/26 06:22:48;;;;;;;;;60.80;49.80;;;;;11.82;59.11;101072.84;5016908;28;45350;-55
2022/04/26 06:25:14;;;;;;;;;69.25;50.50;;;;;11.85;59.04;101064.19;4947101;28;45710;-53
2022/04/26 06:27:39;;;;;;;;;58.75;45.50;;;;;11.88;59.32;101081.09;5026786;28;45961;-53
2022/04/26 06:30:05;;;;;;;;;59.50;45.50;;;;;11.88;58.95;101078.34;5016406;28;45253;-51
2022/04/26 06:32:31;;;;;;;;;60.60;46.40;;;;;11.97;58.82;101072.63;5016099;28;45517;-56
2022/04/26 06:34:56;;;;;;;;;62.75;47.00;;;;;12.02;58.83;101081.91;5017138;28;45256;-56
2022/04/26 06:37:23;;;;;;;;;57.25;46.75;;;;;12.10;58.41;101093.81;5016114;28;46546;-54
2022/04/26 06:39:53;;;;;;;;;62.00;46.00;;;;;12.05;59.19;101097.19;5016792;28;45298;-54
2022/04/26 06:42:20;;;;;;;;;56.40;46.60;;;;;12.09;58.52;101089.34;5015232;28;45417;-57
2022/04/26 06:44:46;;;;;;;;;62.75;48.50;;;;;12.04;58.43;101082.59;5039859;28;45465;-55
2022/04/26 06:47:11;;;;;;;;;58.50;44.00;;;;;12.17;58.12;101084.47;5034861;28;46778;-52
2022/04/26 06:49:37;;;;;;;;;61.00;46.00;;;;;12.30;58.31;101099.28;5025319;28;45424;-53
2022/04/26 06:52:03;;;;;;;;;56.75;45.75;;;;;12.30;58.39;101105.63;5035044;28;45468;-55
2022/04/26 06:54:28;;;;;;;;;64.00;48.00;;;;;12.18;58.40;101104.59;5034791;28;45595;-52
2022/04/26 06:56:54;;;;;;;;;61.75;47.00;;;;;11.83;59.02;101074.53;5016098;28;46749;-53
2022/04/26 06:59:19;;;;;;;;;58.75;47.25;;;;;12.00;59.23;101102.47;5016165;28;45472;-58
2022/04/26 07:01:45;;;;;;;;;61.00;47.25;;;;;12.16;58.66;101107.56;5016217;28;45381;-58
2022/04/26 07:04:11;;;;;;;;;65.75;51.25;;;;;12.35;58.08;101099.47;5016542;28;45354;-53
2022/04/26 07:06:38;;;;;;;;;63.00;47.25;;;;;12.48;57.71;101101.34;5016119;28;45459;-54
2022/04/26 07:09:04;;;;;;;;;62.40;48.20;;;;;12.54;57.57;101108.75;5016498;28;45306;-50
2022/04/26 07:11:30;;;;;;;;;65.60;50.20;;;;;12.50;57.45;101107.50;5016105;28;45413;-57
2022/04/26 07:13:57;;;;;;;;;61.00;48.75;;;;;12.42;57.53;101115.97;5018472;28;45600;-52
2022/04/26 07:16:23;;;;;;;;;65.50;49.25;;;;;12.23;57.45;101077.28;5035600;28;46901;-55
2022/04/26 07:18:48;;;;;;;;;64.50;52.25;;;;;12.46;57.58;101118.09;5035691;28;45507;-56
2022/04/26 07:21:14;;;;;;;;;63.25;49.25;;;;;12.41;57.82;101119.78;5036049;28;45384;-56
2022/04/26 07:23:39;;;;;;;;;64.25;49.75;;;;;12.34;57.30;101095.03;5036104;28;45459;-57
2022/04/26 07:26:05;;;;;;;;;64.25;52.50;;;;;12.47;57.53;101117.03;4998987;28;46451;-57
2022/04/26 07:28:30;;;;;;;;;61.00;50.00;;;;;12.64;57.02;101123.97;5034810;28;45389;-57
2022/04/26 07:30:56;;;;;;;;;62.25;47.50;;;;;12.74;56.89;101122.47;5035904;28;45509;-54
2022/04/26 07:36:06;;;;;;;;;71.50;53.00;;;;;12.68;56.50;101134.34;5035652;28;45873;-53
2022/04/26 07:38:31;;;;;;;;;64.50;50.00;;;;;12.69;56.32;101130.53;5033946;28;45486;-56
2022/04/26 07:40:57;;;;;;;;;65.50;49.25;;;;;12.70;56.28;101132.19;5035774;28;45353;-54
2022/04/26 07:43:22;;;;;;;;;65.00;52.00;;;;;12.79;56.43;101130.06;5027026;27;45508;-52
2022/04/26 07:45:48;;;;;;;;;67.25;51.25;;;;;12.61;56.04;101122.50;5035489;28;46281;-55
2022/04/26 07:48:16;;;;;;;;;67.25;51.25;;;;;12.79;56.40;101141.09;5034427;28;45380;-55
2022/04/26 07:50:42;;;;;;;;;62.00;50.00;;;;;12.85;56.54;101131.09;5032631;28;45471;-56
2022/04/26 07:53:07;;;;;;;;;64.50;50.75;;;;;12.88;56.02;101145.28;5018229;28;45495;-52
2022/04/26 07:55:33;;;;;;;;;67.25;50.75;;;;;12.94;55.86;101149.09;5028790;28;46236;-53
2022/04/26 07:57:58;;;;;;;;;59.75;47.75;;;;;12.97;55.99;101151.38;5014110;28;46817;-53
2022/04/26 08:00:25;;;;;;;;;63.25;49.75;;;;;12.93;56.25;101149.28;5015540;28;45353;-55
2022/04/26 08:02:50;;;;;;;;;63.00;46.25;;;;;13.02;56.06;101164.50;5022102;28;45561;-55
2022/04/26 08:05:16;;;;;;;;;57.75;40.00;;;;;12.97;55.03;101169.84;5035258;28;45433;-54
2022/04/26 08:07:41;;;;;;;;;59.00;44.25;;;;;12.83;55.37;101171.78;5035335;28;45236;-54
2022/04/26 08:10:11;;;;;;;;;63.50;48.25;;;;;12.94;55.19;101164.75;5035439;28;45262;-54
2022/04/26 08:12:40;;;;;;;;;67.50;49.75;;;;;12.96;54.35;101146.94;5034612;28;45338;-52
2022/04/26 08:15:06;;;;;;;;;54.40;42.00;;;;;12.95;54.07;101145.25;5032180;28;46236;-53
2022/04/26 08:17:32;;;;;;;;;56.40;45.00;;;;;13.15;53.82;101164.44;5035118;28;45361;-52
2022/04/26 08:19:58;;;;;;;;;60.25;44.00;;;;;13.20;54.38;101173.97;5035459;28;45263;-53
2022/04/26 08:22:23;;;;;;;;;56.75;44.00;;;;;13.24;53.92;101170.56;5029575;28;45425;-52
2022/04/26 08:27:33;;;;;;;;;57.60;45.40;;;;;13.35;53.69;101176.47;5028492;28;45392;-53
2022/04/26 08:29:59;;;;;;;;;56.50;45.00;;;;;13.33;53.75;101173.91;5037004;28;45393;-56
2022/04/26 08:32:28;;;;;;;;;57.20;42.80;;;;;13.38;53.46;101171.34;5039006;28;45339;-56
2022/04/26 08:34:54;;;;;;;;;59.00;47.80;;;;;13.69;52.89;101182.66;5038472;28;46502;-56
2022/04/26 08:37:20;;;;;;;;;60.50;45.00;;;;;13.90;52.76;101184.22;5031795;28;45473;-56
2022/04/26 08:39:46;;;;;;;;;52.60;40.40;;;;;13.76;51.57;101150.34;5020873;28;45351;-50
2022/04/26 08:42:12;;;;;;;;;60.00;46.50;;;;;14.03;51.55;101193.47;5005366;28;45377;-56
2022/04/26 08:44:38;;;;;;;;;56.25;45.75;;;;;14.05;51.16;101194.91;4991961;27;45862;-53
2022/04/26 08:52:52;;;;;;;;;56.75;45.50;;;;;14.06;51.43;101195.75;5024148;28;45408;-55
2022/04/26 08:55:18;;;;;;;;;51.80;40.60;;;;;14.05;51.52;101205.13;5016847;28;46868;-54
2022/04/26 08:57:43;;;;;;;;;55.25;43.00;;;;;14.01;51.26;101213.00;5016318;28;45257;-55
2022/04/26 09:00:11;;;;;;;;;55.00;43.50;;;;;14.10;50.91;101208.06;5016533;28;45481;-50
2022/04/26 09:02:37;;;;;;;;;53.75;42.00;;;;;14.16;50.51;101220.97;5016780;28;45524;-54
2022/04/26 09:05:12;;;;;;;;;54.20;44.40;;;;;13.52;50.31;101114.25;5036451;28;45511;-54
2022/04/26 09:07:39;;;;;;;;;54.20;40.60;;;;;14.13;50.93;101210.34;5037391;28;45479;-55
2022/04/26 09:10:10;;;;;;;;;58.40;46.40;;;;;13.96;49.98;101186.09;5036862;28;45462;-55
2022/04/26 09:13:04;;;;;;;;;58.20;45.00;;;;;14.10;49.74;101219.09;5036690;28;45466;-56
2022/04/26 09:15:54;;;;;;;;;60.80;45.00;;;;;14.13;50.39;101229.69;5013465;28;45448;-53
2022/04/26 09:18:30;;;;;;;;;54.00;43.40;;;;;14.12;50.16;101240.94;5016465;27;45351;-52
2022/04/26 09:21:05;;;;;;;;;49.60;39.80;;;;;14.21;49.98;101234.91;4998414;28;45380;-51
2022/04/26 09:23:32;;;;;;;;;57.50;44.25;;;;;14.16;50.42;101192.50;5016580;28;45520;-54
2022/04/26 09:26:07;;;;;;;;;60.80;47.20;;;;;14.46;50.17;101236.00;5016648;28;47042;-56
2022/04/26 09:28:33;;;;;;;;;53.20;44.40;;;;;14.46;49.68;101234.09;5013507;28;45330;-51
2022/04/26 09:30:59;;;;;;;;;60.50;47.00;;;;;14.41;50.53;101236.66;5016283;28;45373;-56
2022/04/26 09:33:36;;;;;;;;;58.75;47.25;;;;;14.30;50.04;101242.94;5018065;28;45600;-56
2022/04/26 09:36:06;;;;;;;;;58.80;44.00;;;;;14.23;50.26;101249.38;5016441;28;46418;-55
2022/04/26 09:38:33;;;;;;;;;47.80;38.80;;;;;14.19;50.11;101247.28;5014785;28;45263;-54
2022/04/26 09:41:01;;;;;;;;;56.40;45.40;;;;;14.07;50.37;101252.66;5031485;28;45947;-55
2022/04/26 09:43:26;;;;;;;;;59.40;43.60;;;;;13.91;50.73;101235.56;5024111;27;45619;-55
2022/04/26 09:45:53;;;;;;;;;54.50;44.50;;;;;13.77;51.27;101215.50;4975135;28;45452;-53
2022/04/26 09:48:27;;;;;;;;;59.80;46.00;;;;;13.90;51.33;101255.09;4997374;28;45545;-54
2022/04/26 09:50:53;;;;;;;;;57.40;45.80;;;;;13.73;51.07;101214.25;4980143;28;45488;-56
2022/04/26 09:53:18;;;;;;;;;55.00;46.50;;;;;13.76;51.31;101229.53;5012947;28;45917;-58
2022/04/26 09:55:45;;;;;;;;;59.25;44.00;;;;;13.91;51.34;101246.59;5016519;28;45555;-51
2022/04/26 09:58:11;;;;;;;;;54.60;45.20;;;;;13.99;50.92;101259.31;5017082;28;45473;-56
2022/04/26 10:00:39;;;;;;;;;55.40;43.60;;;;;13.99;51.00;101270.34;5017684;28;45327;-57
2022/04/26 10:03:06;;;;;;;;;62.80;44.00;;;;;13.75;50.91;101230.56;5017418;28;45345;-56
2022/04/26 10:05:32;;;;;;;;;55.80;44.80;;;;;13.82;51.03;101256.19;5015699;28;46284;-55
2022/04/26 10:07:58;;;;;;;;;53.00;43.00;;;;;13.86;51.63;101276.78;5035426;28;45492;-55
2022/04/26 10:10:24;;;;;;;;;60.75;46.50;;;;;13.83;51.44;101263.44;4986239;28;45519;-60
2022/04/26 10:13:31;;;;;;;;;59.25;45.00;;;;;13.57;51.58;101223.88;5006922;28;45627;-59
2022/04/26 10:15:35;;;;;;;;;55.80;46.40;;;;;13.86;52.35;101265.72;5011672;28;45526;-58
2022/04/26 10:18:01;;;;;;;;;59.25;46.00;;;;;13.84;51.69;101240.28;5020221;28;45493;-58
2022/04/26 10:20:39;;;;;;;;;61.50;48.75;;;;;14.15;50.79;101266.19;5031505;28;45456;-58
2022/04/26 10:23:05;;;;;;;;;57.20;46.20;;;;;14.29;50.88;101263.34;5031135;28;45388;-56
2022/04/26 10:25:30;;;;;;;;;57.75;45.75;;;;;14.48;50.02;101272.53;5032812;28;45686;-54
2022/04/26 10:28:23;;;;;;;;;57.00;45.75;;;;;14.43;49.68;101280.63;5030834;28;45665;-60
2022/04/26 10:30:53;;;;;;;;;52.40;41.00;;;;;14.29;49.76;101252.31;5016558;28;45378;-55
2022/04/26 10:33:38;;;;;;;;;53.00;43.20;;;;;14.42;49.10;101278.94;5031738;28;45837;-59
2022/04/26 10:36:37;;;;;;;;;58.40;45.60;;;;;14.59;48.88;101280.09;5031424;28;46429;-56
2022/04/26 10:39:06;;;;;;;;;55.60;44.60;;;;;14.87;48.99;101280.69;5025236;28;45467;-54
2022/04/26 10:41:42;;;;;;;;;56.20;43.60;;;;;15.08;48.16;101278.56;5012799;28;45465;-58
2022/04/26 10:44:16;;;;;;;;;57.40;45.20;;;;;15.02;47.59;101253.56;5010851;28;45572;-53
2022/04/26 10:46:43;;;;;;;;;59.40;44.60;;;;;15.22;47.59;101279.28;5012451;28;45606;-54
2022/04/26 10:49:29;;;;;;;;;55.60;43.80;;;;;15.15;47.76;101257.22;4987543;28;45538;-54
2022/04/26 10:51:56;;;;;;;;;53.60;42.40;;;;;15.20;46.40;101260.16;5021877;28;45640;-58
2022/04/26 10:54:51;;;;;;;;;53.80;42.20;;;;;15.43;46.22;101280.75;5032400;28;45385;-59
2022/04/26 10:57:30;;;;;;;;;53.20;41.80;;;;;15.40;46.21;101273.75;5023307;28;45872;-59
2022/04/26 11:00:00;;;;;;;;;52.60;40.00;;;;;15.50;45.87;101284.28;5014489;28;45397;-61
2022/04/26 11:02:28;;;;;;;;;52.60;40.80;;;;;15.56;46.00;101280.56;5030805;28;45848;-60
2022/04/26 11:05:08;;;;;;;;;51.40;39.80;;;;;15.56;45.78;101279.72;5023602;28;45400;-61
2022/04/26 11:07:34;;;;;;;;;56.80;43.40;;;;;15.47;45.90;101283.91;5011595;28;45821;-56
2022/04/26 11:10:00;;;;;;;;;51.25;41.75;;;;;15.44;45.89;101282.44;5002372;27;45726;-59
2022/04/26 11:12:27;;;;;;;;;54.25;40.00;;;;;15.43;45.86;101272.44;5010483;28;45367;-62
2022/04/26 11:14:54;;;;;;;;;51.20;42.00;;;;;15.63;45.34;101276.88;5011301;28;45837;-56
2022/04/26 11:17:22;;;;;;;;;51.40;39.80;;;;;15.78;45.16;101266.22;5029778;28;46602;-55
2022/04/26 11:19:55;;;;;;;;;52.00;39.40;;;;;16.04;44.98;101269.72;5029992;28;45537;-56
2022/04/26 11:22:21;;;;;;;;;50.80;41.40;;;;;16.19;44.65;101274.84;5029996;28;45408;-55
2022/04/26 11:30:31;;;;;;;;;54.00;43.80;;;;;15.90;45.18;101259.91;5031157;28;45761;-50
2022/04/26 11:33:22;;;;;;;;;51.60;41.00;;;;;15.96;45.26;101270.91;5030325;28;45497;-56
2022/04/26 11:36:04;;;;;;;;;54.60;40.00;;;;;15.77;45.01;101250.72;5029885;28;45738;-54
2022/04/26 11:38:30;;;;;;;;;52.80;38.20;;;;;16.07;44.86;101268.41;5030934;28;47566;-58
2022/04/26 11:41:00;;;;;;;;;48.75;39.50;;;;;16.18;44.95;101272.28;5023513;28;45516;-55
2022/04/26 11:43:33;;;;;;;;;46.80;39.40;;;;;16.11;44.10;101267.72;5011322;28;45561;-56
2022/04/26 11:45:59;;;;;;;;;38.60;34.60;;;;;16.27;44.32;101268.09;5011627;28;45435;-54
2022/04/26 11:48:32;;;;;;;;;41.75;35.50;;;;;16.13;44.43;101220.41;5009439;28;47412;-57
2022/04/26 11:50:58;;;;;;;;;53.00;39.00;;;;;16.54;43.97;101275.97;5005270;28;45637;-58
2022/04/26 11:53:25;;;;;;;;;50.75;39.75;;;;;16.44;43.56;101245.25;5017482;28;46035;-57
2022/04/26 11:56:01;;;;;;;;;48.80;39.20;;;;;16.51;44.66;101270.91;5028166;28;45566;-58
2022/04/26 11:58:40;;;;;;;;;48.20;38.20;;;;;16.34;44.64;101277.13;4990415;28;45782;-58
2022/04/26 12:01:15;;;;;;;;;50.60;39.80;;;;;16.28;44.84;101271.72;4991204;28;45709;-54
2022/04/26 12:03:49;;;;;;;;;51.60;40.20;;;;;16.16;45.17;101274.47;4991083;28;45735;-55
2022/04/26 12:06:19;;;;;;;;;51.40;37.80;;;;;16.24;45.05;101276.88;5015133;28;45638;-56
2022/04/26 12:08:46;;;;;;;;;50.00;38.20;;;;;16.33;45.06;101280.16;5009332;28;46272;-54
2022/04/26 12:11:20;;;;;;;;;45.20;36.00;;;;;16.05;44.79;101229.88;5000274;28;45472;-55
2022/04/26 12:13:46;;;;;;;;;44.40;35.60;;;;;16.04;44.27;101252.25;5010279;28;45428;-56
2022/04/26 12:16:16;;;;;;;;;47.40;38.20;;;;;16.21;45.01;101280.13;5012775;28;45527;-57
2022/04/26 12:18:53;;;;;;;;;46.60;37.80;;;;;16.23;45.14;101277.97;5029024;28;46267;-53
2022/04/26 12:21:18;;;;;;;;;42.40;34.60;;;;;16.31;45.07;101276.78;5030931;28;45470;-58
2022/04/26 12:23:44;;;;;;;;;47.75;37.50;;;;;16.43;45.01;101277.63;5030969;28;45421;-55
2022/04/26 12:26:09;;;;;;;;;48.75;38.75;;;;;16.51;44.91;101277.31;5031207;28;45797;-55
2022/04/26 12:28:49;;;;;;;;;42.50;35.75;;;;;16.54;43.97;101267.66;5028760;28;45810;-59
2022/04/26 12:31:25;;;;;;;;;42.20;35.00;;;;;16.56;44.08;101272.97;5030999;28;45411;-53
2022/04/26 12:34:12;;;;;;;;;40.80;35.00;;;;;16.39;44.51;101257.88;5030776;28;45420;-57
2022/04/26 12:37:00;;;;;;;;;35.20;33.20;;;;;16.77;44.23;101274.31;5029776;28;45633;-56
2022/04/26 12:39:30;;;;;;;;;37.60;34.40;;;;;16.97;43.68;101276.69;5029330;28;45749;-57
2022/04/26 12:41:56;;;;;;;;;44.00;34.80;;;;;17.11;42.89;101263.47;4992279;28;45718;-55
2022/04/26 12:44:22;;;;;;;;;44.80;36.20;;;;;17.18;42.46;101268.91;5008716;28;45930;-55
2022/04/26 12:52:47;;;;;;;;;38.80;32.80;;;;;17.30;42.42;101266.09;5013026;28;45878;-58
2022/04/26 12:55:13;;;;;;;;;42.00;36.40;;;;;17.10;42.38;101264.56;5029341;28;45610;-55
2022/04/26 12:58:06;;;;;;;;;38.20;33.80;;;;;17.24;43.19;101264.28;5018254;28;45681;-56
2022/04/26 13:00:31;;;;;;;;;43.00;35.20;;;;;17.50;42.06;101262.06;4991377;28;45903;-57
2022/04/26 13:03:00;;;;;;;;;45.50;37.00;;;;;17.58;42.07;101231.13;5010133;28;45593;-58
2022/04/26 13:05:26;;;;;;;;;40.80;34.20;;;;;17.96;41.26;101253.78;5011837;28;45746;-54
2022/04/26 13:07:52;;;;;;;;;29.50;28.50;;;;;18.09;41.57;101245.16;5013788;28;45512;-56
2022/04/26 13:10:18;;;;;;;;;36.40;32.00;;;;;18.35;41.21;101259.50;5012901;28;46160;-58
2022/04/26 13:12:44;;;;;;;;;35.00;31.60;;;;;18.56;40.27;101254.28;5015992;28;45318;-57
2022/04/26 13:15:10;;;;;;;;;34.50;31.75;;;;;18.66;39.93;101215.53;5017694;28;45323;-57
2022/04/26 13:17:38;;;;;;;;;29.40;28.40;;;;;18.90;38.85;101220.03;4941934;28;46338;-57
2022/04/26 13:20:05;;;;;;;;;27.60;27.20;;;;;19.25;38.30;101249.44;4994619;28;46070;-58
2022/04/26 13:22:32;;;;;;;;;25.80;25.00;;;;;19.22;37.08;101236.06;4994786;28;45480;-56
2022/04/26 13:24:57;;;;;;;;;29.00;27.60;;;;;19.32;37.46;101244.53;5013606;28;45525;-59
2022/04/26 13:27:23;;;;;;;;;29.75;28.00;;;;;19.07;38.16;101237.56;5014037;28;45377;-56
2022/04/26 13:29:50;;;;;;;;;32.75;27.00;;;;;18.69;38.31;101215.00;5022350;28;46363;-52
2022/04/26 13:32:17;;;;;;;;;31.80;27.20;;;;;18.50;38.62;101211.66;5033184;28;45472;-59
2022/04/26 13:34:44;;;;;;;;;29.20;26.40;;;;;18.40;39.03;101247.63;5031194;28;45826;-57
2022/04/26 13:37:09;;;;;;;;;28.00;26.00;;;;;18.21;39.08;101238.69;5013519;28;45412;-57
2022/04/26 13:39:35;;;;;;;;;31.75;29.75;;;;;18.06;39.52;101233.72;5013670;28;46340;-55
2022/04/26 13:42:01;;;;;;;;;31.60;29.40;;;;;17.78;39.70;101204.88;5022154;28;45417;-58
2022/04/26 13:44:27;;;;;;;;;29.00;26.75;;;;;17.42;40.01;101139.28;5033331;28;45528;-58
2022/04/26 13:46:53;;;;;;;;;31.25;28.50;;;;;17.97;40.06;101236.00;5028594;28;45673;-55
2022/04/26 13:49:19;;;;;;;;;28.20;26.60;;;;;18.11;39.84;101231.03;5015220;28;46286;-57
2022/04/26 13:51:44;;;;;;;;;29.00;26.50;;;;;18.38;39.51;101236.78;5017831;28;45160;-57
2022/04/26 13:54:10;;;;;;;;;32.25;30.00;;;;;18.26;39.26;101197.94;5016248;28;45266;-56
2022/04/26 13:56:36;;;;;;;;;27.75;24.25;;;;;18.55;39.82;101222.00;5017563;28;45649;-57
2022/04/26 13:59:02;;;;;;;;;26.60;23.20;;;;;19.03;37.86;101230.81;5017105;28;45453;-57
2022/04/26 14:01:27;;;;;;;;;30.25;26.75;;;;;19.41;38.15;101230.19;4992943;28;46155;-61
2022/04/26 14:03:53;;;;;;;;;22.25;21.25;;;;;19.67;37.42;101197.03;5010806;28;45510;-57
2022/04/26 14:06:21;;;;;;;;;20.75;20.00;;;;;20.12;35.95;101190.25;5013293;28;45485;-57
2022/04/26 14:08:50;;;;;;;;;28.40;25.60;;;;;21.10;35.38;101219.91;5022109;28;46320;-58
2022/04/26 14:11:16;;;;;;;;;24.40;23.40;;;;;21.98;33.60;101211.00;5032539;28;45780;-58
2022/04/26 14:21:54;;;;;;;;;26.00;22.60;;;;;22.55;32.36;101197.00;4992816;28;46016;-57
2022/04/26 14:24:20;;;;;;;;;30.50;28.25;;;;;22.04;32.96;101198.69;5011189;28;45386;-57
2022/04/26 14:26:46;;;;;;;;;25.25;25.25;;;;;21.51;33.82;101200.53;5011314;28;45987;-57
2022/04/26 14:29:11;;;;;;;;;24.50;23.00;;;;;21.01;34.55;101208.44;5012900;28;45456;-56
2022/04/26 14:31:37;;;;;;;;;23.00;21.25;;;;;20.57;35.01;101207.63;5012548;28;45992;-54
2022/04/26 14:34:03;;;;;;;;;26.50;25.00;;;;;20.23;35.35;101210.69;5029999;28;45437;-54
2022/04/26 14:36:28;;;;;;;;;23.25;20.00;;;;;19.87;35.83;101201.97;5032663;28;45906;-60
2022/04/26 14:38:54;;;;;;;;;24.25;22.50;;;;;19.54;36.22;101190.81;5015997;28;45558;-55
2022/04/26 14:41:19;;;;;;;;;24.50;22.25;;;;;19.85;36.29;101205.03;5016067;28;45557;-56
2022/04/26 14:43:45;;;;;;;;;22.00;22.00;;;;;19.97;35.71;101176.19;5016177;28;45335;-56
2022/04/26 14:46:10;;;;;;;;;20.25;19.00;;;;;21.25;34.75;101200.44;4982203;28;45532;-56
2022/04/26 14:48:36;;;;;;;;;25.50;22.50;;;;;22.50;32.88;101199.81;5015951;28;46245;-56
2022/04/26 14:51:02;;;;;;;;;23.00;23.00;;;;;23.21;30.56;101186.72;5014816;28;45657;-57
2022/04/26 14:53:27;;;;;;;;;21.75;21.75;;;;;23.45;31.07;101204.84;5016679;28;45282;-61
2022/04/26 14:55:53;;;;;;;;;17.50;16.75;;;;;23.21;31.37;101175.53;5015132;28;45492;-53
2022/04/26 14:58:19;;;;;;;;;26.75;22.50;;;;;23.13;31.33;101195.72;5016260;28;45433;-55
2022/04/26 15:00:45;;;;;;;;;20.80;18.40;;;;;22.78;31.62;101189.13;5016081;28;45307;-56
2022/04/26 15:03:10;;;;;;;;;18.00;17.00;;;;;22.29;31.85;101175.47;5016942;28;45315;-57
2022/04/26 15:05:36;;;;;;;;;21.25;19.00;;;;;22.12;32.08;101202.88;5016565;28;45392;-59
2022/04/26 15:10:45;;;;;;;;;19.00;19.00;;;;;21.06;32.84;101207.63;5016039;28;45347;-55
2022/04/26 15:18:39;;;;;;;;;21.20;17.40;;;;;19.85;34.13;101199.44;5014908;28;45705;-50
2022/04/26 15:21:07;;;;;;;;;18.50;18.50;;;;;19.62;33.63;101206.19;5003711;28;45372;-56
2022/04/26 15:23:33;;;;;;;;;15.20;15.20;;;;;19.77;33.86;101199.94;5013602;28;45489;-52
2022/04/26 15:25:58;;;;;;;;;16.50;16.25;;;;;20.05;33.82;101198.00;5015932;28;45393;-53
2022/04/26 15:28:24;;;;;;;;;16.00;15.75;;;;;20.15;33.79;101200.88;5016380;28;45449;-55
2022/04/26 15:30:50;;;;;;;;;21.50;18.00;;;;;20.39;33.70;101197.69;5016108;28;45504;-57
2022/04/26 15:33:19;;;;;;;;;19.25;16.25;;;;;20.27;33.71;101185.94;5016347;28;45436;-50